Pelham, NH

3:11 AM EST on January 22, 2017 (GMT -0500)
Independence Dr | | Change Station
Active Advisory: Gale Warning

Elev 180 ft 42.74 °N, 71.34 °W | Updated 4 seconds ago

Mostly Cloudy
Mostly Cloudy
35.0 °F
Feels Like 35 °F
N
0.0
Wind Variable Wind from WNW
Gusts 0.0 mph

Today
High -- | Low -- °F
--% Chance of Precip.
Yesterday
High -- | Low -- °F
Precip. -- in
Pressure 29.77 in
Visibility 10.0 miles
Clouds Clear
Windchill 35 °F
Dew Point 34 °F
Humidity 95%
Rainfall 0.00 in
Snow Depth Not available.
7:08 AM 4:45 PM
Waning Crescent, 28% visible
METAR KLWM 220754Z AUTO 00000KT 10SM CLR 05/04 A2976 RMK AO2 SLP079 T00500044
Pressure 29.77 in
Visibility 10.0 miles
Clouds Clear
Windchill 35 °F
Dew Point 34 °F
Humidity 95%
Rainfall 0.00 in
Snow Depth Not available.
7:08 AM 4:45 PM
Waning Crescent, 28% visible
METAR KLWM 220754Z AUTO 00000KT 10SM CLR 05/04 A2976 RMK AO2 SLP079 T00500044

Get Your Daily Forecast Email!

Thanks for signing up!

Be on the lookout for a verification email in your inbox.

You'll start receiving the daily forecast at 8 AM.

×

10-Day Weather Forecast

Almanac

Astronomy

Jan. 22, 2017 Rise Set
Actual Time
Civil Twilight
Nautical Twilight
Astronomical Twilight
Moon
Length of Visible Light
Length of Day
Tomorrow will be .
, % of the Moon is Illuminated

Today's Extremes

State Highs State Lows

Community

WunderPhotos

Upload Photos

1,962,540 photos uploaded!

WunderBlog® & News

Nearby

Air Quality

  Air Quality AQ Index Pollutant
Not available.

Snow Depth

Station Depth Elevation

Earthquake Activity

City Distance Mag. Time & Date
Minimum magnitude displayed is 2.5.

Coastal Water Temperatures

Place Temperature

Stations

Nearby Weather Stations

Station Location Temp. Windchill Dew Point Humidity Wind Precip. Elev Updated Type
                   

Watches & Warnings

Gale Warning
Issued: 9:36 PM EST Jan. 21, 2017 – National Weather Service

... Gale Warning remains in effect from 7 am Monday to 5 am EST
Tuesday...

* winds and seas... east winds 20 to 30 kt with gusts up to 45 kt.
Waves around 2 ft... but seas 6 to 9 feet near the Outer Harbor
entrance.

Precautionary/preparedness actions...

A Gale Warning means winds of 34 to 47 knots are imminent or
occurring. Operating a vessel in gale conditions requires
experience and properly equipped vessels. It is highly
recommended that mariners without the proper experience seek safe
Harbor prior to the onset of gale conditions.